Stations météo

réclame
Mon MeteoGroup
Dourbes, Belgique (6455): Température de l'air & dewpoint: 14.07.2018 22:00:00 - 20.07.2018 22:00:00 (CEST)Dourbes, Belgique (6455): Vitesse du vent & gusts: 14.07.2018 22:00:00 - 20.07.2018 22:00:00 (CEST)Dourbes, Belgique (6455): Direction du vent: 14.07.2018 22:00:00 - 20.07.2018 22:00:00 (CEST)Dourbes, Belgique (6455): reduced air pressure: 14.07.2018 22:00:00 - 20.07.2018 22:00:00 (CEST)Dourbes, Belgique (6455): Ensoleillement: 14.07.2018 22:00:00 - 20.07.2018 22:00:00 (CEST)Dourbes, Belgique (6455): Quantités de précipitations: 14.07.2018 22:00:00 - 20.07.2018 22:00:00 (CEST)
Date & Time tt [°C] td [°C] ff [km/h] ff [knt] fx [km/h] fx [knt] dd ppp [hPa] sd [min] rr [mm]
20.07.2018 22:00:00 18,5 12,0 4 2 10 5 SSE 1012,1 0 0,0
20.07.2018 21:00:00 20,0 12,8 4 2 8 4 NW 1011,7 0 0,0
20.07.2018 20:00:00 20,8 11,7 4 2 10 5 NNW 1011,8 8 0,0
20.07.2018 19:00:00 21,3 14,4 4 2 8 4 NW 1012,0 5 0,0
20.07.2018 18:00:00 20,5 15,0 4 2 11 6 NNW 1012,3 5 0,0
20.07.2018 17:00:00 18,6 15,2 8 4 21 11 NNW 1012,8 0 0,0
20.07.2018 16:00:00 19,0 16,4 5 3 20 11 WNW 1013,3 0 0,5
20.07.2018 15:00:00 19,9 15,3 10 6 26 14 W 1013,6 0 0,1
20.07.2018 14:00:00 24,2 12,8 4 2 10 5 W 1012,9 0 0,0
20.07.2018 13:00:00 25,8 11,2 4 2 14 7 NW 1012,8 51 0,0
20.07.2018 12:00:00 25,5 11,8 6 3 15 8 N 1013,0 60 0,0
20.07.2018 11:00:00 23,8 12,5 4 2 - - NE 1013,4 - -
20.07.2018 10:00:00 20,8 11,3 4 2 11 6 ENE 1013,8 - -
20.07.2018 09:00:00 18,3 12,1 5 3 10 6 SE 1014,1 45 0,0
20.07.2018 08:00:00 15,2 12,3 4 2 6 3 SW 1014,7 41 0,0
20.07.2018 07:00:00 12,4 10,7 0 0 4 2 N 1014,9 0 0,0
20.07.2018 06:00:00 12,4 10,5 4 2 5 3 E 1015,0 0 0,0
20.07.2018 05:00:00 12,6 10,6 0 0 3 2 N 1015,2 0 0,0
20.07.2018 04:00:00 13,4 10,7 4 2 5 3 E 1015,6 0 0,0
20.07.2018 03:00:00 14,5 10,4 4 2 5 3 NE 1015,9 0 0,0
20.07.2018 02:00:00 16,3 10,7 4 2 7 4 ENE 1016,1 0 0,0
20.07.2018 01:00:00 16,9 11,4 4 2 7 4 ENE 1016,5 0 0,0
20.07.2018 00:00:00 18,9 11,2 6 3 11 6 N 1016,3 0 0,0
19.07.2018 23:00:00 20,8 10,7 6 3 13 7 N 1015,9 0 0,0
19.07.2018 22:00:00 22,4 10,1 6 4 13 7 N 1015,4 0 0,0
19.07.2018 21:00:00 24,1 9,6 8 5 13 7 N 1015,0 20 0,0
19.07.2018 20:00:00 26,0 9,1 7 4 14 8 N 1014,9 60 0,0
19.07.2018 19:00:00 27,0 8,5 5 3 15 8 N 1014,6 60 0,0
19.07.2018 18:00:00 27,0 7,9 5 3 14 8 ENE 1015,1 60 0,0
19.07.2018 17:00:00 27,4 8,7 7 4 - - N 1015,5 - -
19.07.2018 16:00:00 26,8 9,2 6 3 14 8 ESE 1015,9 55 0,0
19.07.2018 15:00:00 25,9 9,5 4 2 18 10 ENE 1016,4 - -
19.07.2018 14:00:00 26,1 10,7 4 2 15 8 NW 1016,7 55 0,0
19.07.2018 13:00:00 25,4 10,9 6 3 17 9 ENE 1017,0 58 0,0
19.07.2018 12:00:00 24,1 10,7 7 4 17 9 NE 1017,2 60 0,0
19.07.2018 11:00:00 23,1 13,1 4 2 11 6 N 1017,5 60 0,0
19.07.2018 10:00:00 21,1 15,1 4 2 5 3 SSW 1017,7 60 0,0
19.07.2018 09:00:00 16,5 13,6 0 0 4 2 N 1018,1 60 0,0
19.07.2018 08:00:00 14,5 13,0 0 0 3 1 N 1018,5 60 0,0
19.07.2018 07:00:00 11,7 11,4 0 0 4 2 N 1018,7 13 0,0
19.07.2018 06:00:00 11,1 10,5 4 2 4 2 ESE 1018,8 0 0,0
19.07.2018 05:00:00 11,9 11,1 4 2 4 2 ENE 1018,7 0 0,0
19.07.2018 04:00:00 12,5 11,2 0 0 4 2 N 1019,0 0 0,0
19.07.2018 03:00:00 13,1 11,0 0 0 3 2 N 1019,1 0 0,0
19.07.2018 02:00:00 13,9 11,0 0 0 5 3 N 1019,3 0 0,0
19.07.2018 01:00:00 14,6 10,6 4 2 5 3 SSW 1019,0 0 0,0
19.07.2018 00:00:00 16,4 10,7 4 2 11 6 N 1018,3 0 0,0
18.07.2018 23:00:00 18,8 10,1 7 4 14 8 N 1017,7 0 0,0
18.07.2018 22:00:00 20,5 9,8 7 4 11 6 N 1017,2 0 0,0
18.07.2018 21:00:00 22,5 9,7 5 3 16 9 NNW 1016,8 28 0,0
18.07.2018 20:00:00 24,7 9,5 4 2 14 8 NNW 1016,6 60 0,0
18.07.2018 19:00:00 25,1 9,5 8 4 16 9 NW 1016,5 60 0,0
18.07.2018 18:00:00 25,6 9,8 9 5 16 9 WSW 1016,6 60 0,0
18.07.2018 17:00:00 25,8 9,6 8 4 18 10 W 1016,8 60 0,0
18.07.2018 16:00:00 25,7 10,1 5 3 18 10 WNW 1017,1 42 0,0
18.07.2018 15:00:00 24,2 9,8 8 4 22 12 WNW 1017,5 42 0,0
18.07.2018 14:00:00 24,0 9,5 7 4 18 10 WNW 1017,7 48 0,0
18.07.2018 13:00:00 23,0 10,0 6 4 19 10 NW 1018,0 35 0,0
18.07.2018 12:00:00 22,8 12,1 6 3 12 6 S 1018,0 60 0,0
18.07.2018 11:00:00 20,5 12,9 4 2 8 4 SW 1018,5 60 0,0
18.07.2018 10:00:00 16,9 12,6 4 2 6 3 SW 1019,1 10 0,0
18.07.2018 09:00:00 14,4 11,5 4 2 5 3 SW 1019,1 0 0,0
18.07.2018 08:00:00 12,6 11,1 4 2 4 2 SSW 1019,1 0 0,0
18.07.2018 07:00:00 11,5 10,7 0 0 5 3 N 1018,9 0 0,0
18.07.2018 06:00:00 10,6 10,0 4 2 5 3 SSW 1018,9 0 0,0
18.07.2018 05:00:00 10,7 10,0 4 2 5 3 W 1018,8 0 0,0
18.07.2018 04:00:00 11,5 10,7 4 2 5 3 E 1018,7 0 0,0
18.07.2018 03:00:00 11,2 9,8 0 0 3 2 N 1018,9 0 0,0
18.07.2018 02:00:00 12,2 10,2 0 0 4 2 N 1018,8 0 0,0
18.07.2018 01:00:00 13,7 10,6 4 2 5 3 SSW 1018,6 0 0,0
18.07.2018 00:00:00 15,0 10,4 4 2 4 2 SW 1018,4 0 0,0
17.07.2018 23:00:00 17,1 9,6 4 2 9 5 NW 1018,0 0 0,0
17.07.2018 22:00:00 18,9 9,8 4 2 15 8 NW 1017,3 0 0,0
17.07.2018 21:00:00 20,7 10,5 6 3 18 10 NW 1016,6 14 0,0
17.07.2018 20:00:00 23,4 10,7 7 4 22 12 WNW 1015,9 60 0,0
17.07.2018 19:00:00 24,2 11,3 10 6 24 13 W 1015,8 59 0,0
17.07.2018 18:00:00 24,5 12,5 8 5 28 15 WNW 1015,7 57 0,0
17.07.2018 17:00:00 25,0 13,2 10 6 28 15 W 1015,7 49 0,0
17.07.2018 16:00:00 24,9 14,3 13 7 27 15 WSW 1015,6 52 0,0
17.07.2018 15:00:00 24,8 14,9 12 7 28 15 WSW 1015,7 35 0,0
17.07.2018 14:00:00 25,0 15,2 11 6 35 19 WSW 1015,7 51 0,0
17.07.2018 13:00:00 24,6 15,0 13 7 26 14 SW 1015,7 59 0,0
17.07.2018 12:00:00 24,1 14,0 7 4 13 7 WSW 1015,3 60 0,0
17.07.2018 11:00:00 21,4 13,9 5 3 11 6 SW 1015,5 53 0,0
17.07.2018 10:00:00 18,7 13,3 6 3 14 8 SW 1015,8 12 0,0
17.07.2018 09:00:00 18,8 13,0 7 4 13 7 WSW 1015,5 53 0,0
17.07.2018 08:00:00 16,6 13,0 4 2 8 4 SSW 1015,3 60 0,0
17.07.2018 07:00:00 15,0 13,4 5 3 8 4 WSW 1014,9 13 0,0
17.07.2018 06:00:00 15,3 12,9 4 2 6 3 SW 1014,6 0 0,0
17.07.2018 05:00:00 16,3 13,2 5 3 8 4 SW 1014,3 0 0,0
17.07.2018 04:00:00 16,7 14,0 5 3 8 4 SSW 1014,2 0 0,0
17.07.2018 03:00:00 16,9 13,9 5 3 8 5 WSW 1014,3 0 0,0
17.07.2018 02:00:00 17,6 14,1 5 3 7 4 WSW 1014,1 0 0,0
17.07.2018 01:00:00 17,7 14,0 4 2 7 4 WSW 1013,9 0 0,0
17.07.2018 00:00:00 18,5 13,2 4 2 7 4 W 1013,5 0 0,0
16.07.2018 23:00:00 19,8 13,2 0 0 4 2 N 1013,0 0 0,0
16.07.2018 22:00:00 21,6 13,1 4 2 6 4 NNW 1012,6 0 0,0
16.07.2018 21:00:00 23,0 12,4 4 2 9 5 N 1011,7 0 0,0
16.07.2018 20:00:00 24,0 12,1 7 4 23 12 NNW 1011,3 0 0,0
16.07.2018 19:00:00 24,4 11,6 11 6 29 15 NW 1010,9 11 0,0
16.07.2018 18:00:00 28,9 6,5 4 2 12 6 N 1010,3 58 0,0
16.07.2018 17:00:00 29,2 7,7 7 4 19 10 NNW 1010,3 60 0,0
16.07.2018 16:00:00 29,1 8,3 4 2 19 11 ENE 1010,7 55 0,0
16.07.2018 15:00:00 28,9 9,0 6 3 15 8 NE 1011,1 60 0,0
16.07.2018 14:00:00 28,7 9,6 4 2 15 8 ESE 1011,5 60 0,0
16.07.2018 13:00:00 27,3 9,7 9 5 19 11 N 1012,0 60 0,0
16.07.2018 12:00:00 27,0 10,3 6 3 16 9 NNE 1012,3 60 0,0
16.07.2018 11:00:00 24,9 15,6 5 3 9 5 NNE 1012,5 60 0,0
16.07.2018 10:00:00 22,9 15,4 4 2 8 5 ENE 1012,8 60 0,0
16.07.2018 09:00:00 19,6 15,4 4 2 4 2 S 1013,2 60 0,0
16.07.2018 08:00:00 15,8 13,4 0 0 4 2 N 1013,7 60 0,0
16.07.2018 07:00:00 14,1 12,7 0 0 3 2 N 1013,8 13 0,0
16.07.2018 06:00:00 13,3 11,5 0 0 5 3 N 1013,8 0 0,0
16.07.2018 05:00:00 13,5 11,8 5 3 6 3 N 1013,7 0 0,0
16.07.2018 04:00:00 14,2 11,6 0 0 5 3 N 1013,8 0 0,0
16.07.2018 03:00:00 14,4 11,9 4 2 6 3 S 1014,1 0 0,0
16.07.2018 02:00:00 15,6 12,2 4 2 7 4 W 1014,1 0 0,0
16.07.2018 01:00:00 16,1 12,2 0 0 4 2 N 1014,4 0 0,0
16.07.2018 00:00:00 17,5 12,4 0 0 4 2 N 1014,2 0 0,0
15.07.2018 23:00:00 19,8 11,6 0 0 9 5 N 1014,0 0 0,0
15.07.2018 22:00:00 22,4 9,5 6 3 10 6 N 1013,4 0 0,0
15.07.2018 21:00:00 25,0 9,6 5 3 11 6 N 1012,7 28 0,0
15.07.2018 20:00:00 27,6 9,0 4 2 13 7 NNE 1012,2 53 0,0
15.07.2018 19:00:00 27,7 9,3 8 4 18 10 N 1012,3 56 0,0
15.07.2018 18:00:00 28,2 9,2 7 4 16 8 NNE 1012,4 43 0,0
15.07.2018 17:00:00 28,5 9,5 9 5 20 11 NNW 1012,7 54 0,0
15.07.2018 16:00:00 28,1 9,6 8 4 14 7 NE 1013,0 60 0,0
15.07.2018 15:00:00 27,7 10,1 8 4 14 7 NW 1013,7 60 0,0
15.07.2018 14:00:00 26,8 9,7 4 2 14 8 SE 1014,4 60 0,0
15.07.2018 13:00:00 26,6 11,5 5 3 16 9 N 1015,0 60 0,0
15.07.2018 12:00:00 25,5 11,4 5 3 16 9 N 1015,4 60 0,0
15.07.2018 11:00:00 24,1 13,7 5 3 11 6 NE 1015,8 60 0,0
15.07.2018 10:00:00 21,5 14,8 4 2 10 5 N 1016,2 60 0,0
15.07.2018 09:00:00 18,4 14,9 4 2 8 4 E 1016,4 60 0,0
15.07.2018 08:00:00 14,4 12,8 0 0 3 1 N 1016,8 60 0,0
15.07.2018 07:00:00 12,6 12,2 0 0 4 2 N 1016,8 13 0,0
15.07.2018 06:00:00 12,1 11,5 0 0 4 2 N 1017,0 0 0,0
15.07.2018 05:00:00 12,7 11,9 4 2 5 3 N 1017,2 0 0,0
15.07.2018 04:00:00 13,5 12,2 0 0 4 2 N 1017,2 0 0,0
15.07.2018 03:00:00 14,1 12,4 4 2 5 3 S 1017,5 0 0,0
15.07.2018 02:00:00 15,0 12,4 0 0 6 3 N 1017,6 0 0,0
15.07.2018 01:00:00 16,5 12,3 4 2 6 3 ENE 1017,6 0 0,0
15.07.2018 00:00:00 17,7 12,7 4 2 12 6 ENE 1017,5 0 0,0
14.07.2018 23:00:00 19,6 11,7 4 2 9 5 N 1017,1 0 0,0
14.07.2018 22:00:00 21,2 12,2 4 2 9 5 N 1016,6 0 0,0

tt = Température de l'air
td = dewpoint
ff = Vitesse du vent
fx = gusts
dd = Direction du vent
ppp = reduced air pressure
sd = Ensoleillement
rr = Quantités de précipitations

stations d'obs. à proximité